Pagrindinis puslapis
METAR-TAF:

METAR-TAF

Oro uostai :

Toamasina, Madagaskaras

platuma: 18-07S, ilguma: 049-24E, Aukštis: 5 m

Dabartinis oras

Ataskaita buvo paskelbta 34 minutes, ne 21:00 UTC
Ramus vėjas
Temperatūra 17°C
Drėgmė 100%
Slėgis 1018 hPa
Matomumas 10 km arba daugiau
Mažai debesys ne aukštis 1700 ft

METAR: FMMT 172100Z 00000KT 9999 FEW017 17/17 Q1018

Laikas: 00:34 (21:34 UTC)

Prognozė

Ataskaita buvo paskelbta 4 valandos ir 34 minutes, ne 17:00 UTC
Prognozė galioja nuo 17 metu 18 UTC su 18 metu 18 UTC
Vėjas 5 kt iš Vakarų/Pietvakarių
Matomumas 10 km arba daugiau
Mažai debesys ne aukštis 1700 ft
Išsisklaidę debesys ne aukštis 3300 ft
Tapsmas
nuo 18 metu 06 UTC su 18 metu 09 UTC
Vėjas 10 kt iš Pietų

TAF: FMMT 171700Z 1718/1818 24005KT 9999 FEW017 SCT033 BECMG 1806/1809 18010KT

Orai ataskaitas ir orų prognozės (METAR, TAF).

turimą stotys yra geltonos ir raudonos taškus žemėlapyje.

Perkelti pele per norėdami pamatyti stoties vardą.

Tada spustelėkite, norėdami matyti oro stebėjimo ir prognozės.

Norėdami pakeisti žemėlapį: spustelėkite ant žalios mygtukų su juodo kryžiaus žemyn,; žalią mygtuką su brūkšneliu, jei norite nutolinti; arba žalių rodyklių gretimoms žemėlapius.


METAR-TAF: